Time;durP1;ratioP1;P1;durP2;ratioP2;P2;SDS_P1;SDS_P2;PMS_P1;PMS_P2;Temp;Humidity;BMP_temperature;BMP_pressure;BME280_temperature;BME280_humidity;BME280_pressure;Samples;Min_cycle;Max_cycle;Signal;HPM_P1;HPM_P2
2021/05/18 00:15:30;;;;;;;20.63;13.93;;;6.50;99.90;;;;;;6325150;22;20391;-96
2021/05/18 00:36:30;;;;;;;13.23;9.65;;;6.50;99.90;;;;;;6366808;22;20383;-96
2021/05/18 00:39:11;;;;;;;14.25;9.63;;;6.50;99.90;;;;;;6364081;22;20387;-96
2021/05/18 07:17:53;;;;;;;6.53;3.70;;;6.70;99.90;;;;;;6300931;22;20373;-96
2021/05/18 13:07:28;;;;;;;4.00;0.30;;;7.90;99.90;;;;;;6350269;22;20762;-96
2021/05/18 13:53:45;;;;;;;1.42;0.50;;;13.70;99.90;;;;;;6369129;22;20456;-96
2021/05/18 13:56:22;;;;;;;1.10;0.60;;;14.60;99.90;;;;;;6323663;22;20473;-95
2021/05/18 14:25:56;;;;;;;1.58;0.40;;;14.20;99.90;;;;;;6332898;22;20716;-95
2021/05/18 14:28:40;;;;;;;1.40;0.50;;;14.50;99.90;;;;;;6346442;22;20382;-96
2021/05/18 14:31:10;;;;;;;0.95;0.50;;;14.10;99.90;;;;;;6369530;22;20856;-94
2021/05/18 14:33:38;;;;;;;1.90;0.47;;;13.90;99.90;;;;;;6370664;22;20845;-95
2021/05/18 14:36:08;;;;;;;0.70;0.50;;;14.00;99.90;;;;;;6369288;22;20462;-94
2021/05/18 14:38:37;;;;;;;0.70;0.40;;;14.30;99.90;;;;;;6370572;22;20379;-96
2021/05/18 14:56:37;;;;;;;0.45;0.40;;;11.30;99.90;;;;;;6372577;22;20379;-96
2021/05/18 14:59:05;;;;;;;1.10;0.50;;;11.80;99.90;;;;;;6346015;22;20383;-96
2021/05/18 15:01:32;;;;;;;1.35;0.30;;;12.10;99.90;;;;;;6344406;22;20391;-94
2021/05/18 15:03:59;;;;;;;2.53;0.40;;;12.00;99.90;;;;;;6344921;22;20389;-95
2021/05/18 15:06:27;;;;;;;1.52;0.50;;;11.90;99.90;;;;;;6344675;22;20478;-95
2021/05/18 15:08:54;;;;;;;1.45;0.43;;;12.40;99.90;;;;;;6344981;22;20379;-95
2021/05/18 15:11:21;;;;;;;1.70;0.50;;;13.70;99.90;;;;;;6345325;22;20379;-95
2021/05/18 15:13:48;;;;;;;0.40;0.30;;;14.90;99.90;;;;;;6344961;22;20375;-96
2021/05/18 15:16:15;;;;;;;1.48;0.50;;;14.90;99.90;;;;;;6344811;22;20403;-96
2021/05/18 15:18:45;;;;;;;1.80;0.40;;;14.00;99.90;;;;;;6346228;22;20376;-95
2021/05/18 15:21:16;;;;;;;0.50;0.35;;;13.70;99.90;;;;;;6345132;22;20411;-95
2021/05/18 15:23:44;;;;;;;2.10;0.40;;;13.60;99.90;;;;;;6345959;22;20458;-94
2021/05/18 15:26:13;;;;;;;0.88;0.35;;;13.30;99.90;;;;;;6370809;22;20379;-96
2021/05/18 15:28:41;;;;;;;2.13;0.40;;;12.80;99.90;;;;;;6370543;22;20383;-94
2021/05/18 15:31:10;;;;;;;1.73;0.50;;;12.90;99.90;;;;;;6344755;22;20386;-96
2021/05/18 15:33:40;;;;;;;0.70;0.50;;;13.50;99.90;;;;;;6371346;22;20379;-96
2021/05/18 15:36:10;;;;;;;0.63;0.40;;;13.70;99.90;;;;;;6367030;22;20383;-96
2021/05/18 15:38:38;;;;;;;1.58;0.52;;;13.30;99.90;;;;;;6398642;22;20385;-95
2021/05/18 15:41:07;;;;;;;1.08;0.50;;;13.70;99.90;;;;;;6364883;22;20398;-95
2021/05/18 15:43:35;;;;;;;1.55;0.50;;;14.50;99.90;;;;;;6382725;22;20375;-95
2021/05/18 15:46:03;;;;;;;1.20;0.60;;;14.80;99.90;;;;;;6371642;22;20379;-96
2021/05/18 15:48:32;;;;;;;1.60;0.50;;;13.90;99.90;;;;;;6371795;22;20740;-95
2021/05/18 15:51:00;;;;;;;0.63;0.50;;;13.00;99.90;;;;;;6371192;22;20382;-93
2021/05/18 15:53:30;;;;;;;1.27;0.50;;;12.40;99.90;;;;;;6371595;22;20379;-96
2021/05/18 15:56:05;;;;;;;1.90;0.70;;;11.80;99.90;;;;;;6346219;22;20375;-95
2021/05/18 15:58:35;;;;;;;1.27;0.45;;;11.60;99.90;;;;;;6373836;22;20379;-96
2021/05/18 16:01:06;;;;;;;1.23;0.50;;;11.30;99.90;;;;;;6346714;22;20379;-95
2021/05/18 16:03:34;;;;;;;1.27;0.50;;;11.30;99.90;;;;;;6348197;22;20375;-94
2021/05/18 16:06:03;;;;;;;2.78;0.60;;;11.30;99.90;;;;;;6345310;22;20382;-94
2021/05/18 16:11:17;;;;;;;1.17;0.40;;;12.80;99.90;;;;;;6375823;22;20410;-96
2021/05/18 16:13:45;;;;;;;0.60;0.40;;;13.20;99.90;;;;;;6347481;22;20393;-95
2021/05/18 16:16:18;;;;;;;0.82;0.40;;;13.60;99.90;;;;;;6347654;22;20375;-96
2021/05/18 16:18:45;;;;;;;2.90;0.40;;;13.60;99.90;;;;;;6372447;22;20387;-95
2021/05/18 16:21:18;;;;;;;0.93;0.60;;;13.20;99.90;;;;;;6344720;22;20414;-96
2021/05/18 16:23:51;;;;;;;0.57;0.40;;;12.90;99.90;;;;;;6371097;22;20872;-94
2021/05/18 16:26:22;;;;;;;1.42;0.80;;;12.40;99.90;;;;;;6371035;22;20383;-93
2021/05/18 16:28:50;;;;;;;1.65;0.70;;;12.10;99.90;;;;;;6371893;22;20458;-94
2021/05/18 16:31:18;;;;;;;3.70;0.70;;;12.10;99.90;;;;;;6350707;22;20379;-96
2021/05/18 16:33:46;;;;;;;1.77;0.80;;;12.10;99.90;;;;;;6380407;22;20398;-94
2021/05/18 16:36:15;;;;;;;1.23;0.70;;;11.90;99.90;;;;;;6351574;22;20379;-94
2021/05/18 16:38:44;;;;;;;1.70;1.00;;;12.30;99.90;;;;;;6346729;22;20462;-96
2021/05/18 16:41:30;;;;;;;2.00;1.10;;;13.30;99.90;;;;;;6373146;22;20445;-96
2021/05/18 16:44:04;;;;;;;1.15;0.70;;;14.30;99.90;;;;;;6378450;22;20375;-96
2021/05/18 16:46:31;;;;;;;0.90;0.50;;;14.50;99.90;;;;;;6354367;22;20386;-94
2021/05/18 16:49:00;;;;;;;1.80;0.63;;;14.80;99.90;;;;;;6353697;22;20375;-93
2021/05/18 16:51:47;;;;;;;0.98;0.57;;;14.10;99.90;;;;;;6348883;22;20440;-96
2021/05/18 17:51:45;;;;;;;0.35;0.35;;;12.90;99.90;;;;;;6357211;22;20382;-96
2021/05/18 18:13:26;;;;;;;0.93;0.50;;;11.60;99.90;;;;;;6301050;22;20379;-90
2021/05/18 23:15:45;;;;;;;1.23;0.90;;;6.30;99.90;;;;;;6269278;22;20386;-96
2021/05/18 23:27:46;;;;;;;3.33;1.30;;;6.30;99.90;;;;;;6293784;22;20730;-95
